createdAt,value
2023-03-20T00:02:20.581Z,98572.59
2023-03-20T00:04:48.048Z,98577.75
2023-03-20T00:07:15.377Z,98573.88
2023-03-20T00:09:42.742Z,98576.59
2023-03-20T00:12:15.766Z,98571.81
2023-03-20T00:14:43.320Z,98571.31
2023-03-20T00:17:20.200Z,98568.44
2023-03-20T00:19:47.717Z,98575.72
2023-03-20T00:22:15.316Z,98568.47
2023-03-20T00:24:42.784Z,98567.19
2023-03-20T00:27:14.775Z,98563.09
2023-03-20T00:29:42.536Z,98568.06
2023-03-20T00:32:14.251Z,98571.50
2023-03-20T00:34:42.067Z,98565.09
2023-03-20T00:37:11.676Z,98570.16
2023-03-20T00:39:39.355Z,98569.34
2023-03-20T00:42:10.664Z,98567.81
2023-03-20T00:44:42.361Z,98567.78
2023-03-20T00:47:18.677Z,98567.09
2023-03-20T00:49:49.883Z,98570.88
2023-03-20T00:52:18.968Z,98564.63
2023-03-20T00:54:46.404Z,98572.97
2023-03-20T00:57:24.002Z,98572.13
2023-03-20T01:00:07.896Z,98574.03
2023-03-20T01:02:38.924Z,98572.31
2023-03-20T01:05:06.802Z,98579.47
2023-03-20T01:07:34.180Z,98572.53
2023-03-20T01:10:04.024Z,98576.00
2023-03-20T01:12:31.503Z,98578.84
2023-03-20T01:14:59.598Z,98579.69
2023-03-20T01:17:28.698Z,98581.50
2023-03-20T01:19:56.504Z,98580.53
2023-03-20T01:22:23.864Z,98578.66
2023-03-20T01:24:51.278Z,98576.75
2023-03-20T01:27:20.934Z,98578.56
2023-03-20T01:29:48.498Z,98577.06
2023-03-20T01:32:18.474Z,98584.56
2023-03-20T01:34:49.019Z,98578.44
2023-03-20T01:37:27.243Z,98586.91
2023-03-20T01:39:57.841Z,98592.47
2023-03-20T01:42:26.190Z,98585.09
2023-03-20T01:44:53.552Z,98591.50
2023-03-20T01:47:23.929Z,98590.00
2023-03-20T01:50:19.856Z,98582.31
2023-03-20T01:52:49.930Z,98588.66
2023-03-20T01:55:18.775Z,98587.91
2023-03-20T01:57:53.262Z,98585.94
2023-03-20T02:00:20.935Z,98584.03
2023-03-20T02:02:49.640Z,98584.88
2023-03-20T02:05:38.473Z,98589.53
2023-03-20T02:08:08.909Z,98592.25
2023-03-20T02:10:36.644Z,98595.84
2023-03-20T02:13:19.019Z,98602.13
2023-03-20T02:15:58.160Z,98600.38
2023-03-20T02:18:41.789Z,98604.59
2023-03-20T02:21:47.343Z,98608.06
2023-03-20T02:24:41.668Z,98608.59
2023-03-20T02:27:35.316Z,98607.44
2023-03-20T02:30:31.236Z,98614.16
2023-03-20T02:33:08.186Z,98609.22
2023-03-20T02:36:09.629Z,98610.94
2023-03-20T02:38:41.222Z,98608.41
2023-03-20T02:41:49.403Z,98618.22
2023-03-20T02:44:47.307Z,98618.84
2023-03-20T02:47:24.015Z,98619.13
2023-03-20T02:49:59.728Z,98610.78
2023-03-20T02:52:41.274Z,98610.91
2023-03-20T02:55:25.135Z,98615.34
2023-03-20T02:58:08.642Z,98608.91
2023-03-20T03:00:50.757Z,98613.47
2023-03-20T03:03:38.501Z,98616.72
2023-03-20T03:06:09.940Z,98608.59
2023-03-20T03:08:41.153Z,98615.00
2023-03-20T03:11:09.631Z,98614.59
2023-03-20T03:13:41.249Z,98615.19
2023-03-20T03:16:16.409Z,98612.47
2023-03-20T03:18:46.547Z,98620.47
2023-03-20T03:21:16.684Z,98608.59
2023-03-20T03:23:47.728Z,98616.03
2023-03-20T03:26:22.714Z,98611.53
2023-03-20T03:28:54.639Z,98619.34
2023-03-20T03:31:23.067Z,98618.59
2023-03-20T03:33:53.647Z,98625.53
2023-03-20T03:36:33.680Z,98631.94
2023-03-20T03:40:05.603Z,98632.66
2023-03-20T03:42:33.733Z,98630.44
2023-03-20T03:45:38.527Z,98641.06
2023-03-20T03:48:15.518Z,98629.56
2023-03-20T03:50:53.970Z,98633.91
2023-03-20T03:53:25.922Z,98630.31
2023-03-20T03:55:57.797Z,98633.25
2023-03-20T03:58:29.336Z,98643.03
2023-03-20T04:00:59.270Z,98647.38
2023-03-20T04:03:31.340Z,98643.50
2023-03-20T04:05:59.655Z,98649.50
2023-03-20T04:08:27.513Z,98646.31
2023-03-20T04:10:55.019Z,98648.13
2023-03-20T04:13:22.435Z,98651.81
2023-03-20T04:15:49.915Z,98650.22
2023-03-20T04:18:18.761Z,98654.53
2023-03-20T04:20:48.059Z,98651.97
2023-03-20T04:23:16.954Z,98654.59
2023-03-20T04:25:44.490Z,98646.53
2023-03-20T04:28:12.037Z,98647.47
2023-03-20T04:30:48.090Z,98650.22
2023-03-20T04:33:26.496Z,98649.47
2023-03-20T04:36:19.921Z,98644.19
2023-03-20T04:38:47.716Z,98640.97
2023-03-20T04:41:15.466Z,98642.06
2023-03-20T04:43:44.457Z,98641.50
2023-03-20T04:46:11.851Z,98640.53
2023-03-20T04:48:39.243Z,98634.72
2023-03-20T04:51:07.095Z,98631.03
2023-03-20T04:53:54.771Z,98636.47
2023-03-20T04:56:23.174Z,98633.84
2023-03-20T04:58:51.731Z,98639.97
2023-03-20T05:01:21.346Z,98644.38
2023-03-20T05:03:49.041Z,98644.28
2023-03-20T05:06:16.480Z,98640.81
2023-03-20T05:08:45.151Z,98653.03
2023-03-20T05:11:12.531Z,98656.53
2023-03-20T05:13:55.272Z,98666.56
2023-03-20T05:16:42.992Z,98673.72
2023-03-20T05:19:22.123Z,98669.28
2023-03-20T05:22:18.799Z,98671.06
2023-03-20T05:24:54.818Z,98678.84
2023-03-20T05:27:41.088Z,98681.41
2023-03-20T05:30:26.964Z,98674.53
2023-03-20T05:33:14.427Z,98678.19
2023-03-20T05:36:06.003Z,98678.50
2023-03-20T05:39:03.861Z,98681.38
2023-03-20T05:41:57.620Z,98683.72
2023-03-20T05:44:24.981Z,98685.09
2023-03-20T05:47:11.455Z,98679.66
2023-03-20T05:49:53.306Z,98677.66
2023-03-20T05:52:40.931Z,98673.75
2023-03-20T05:55:28.572Z,98680.06
2023-03-20T05:58:28.194Z,98683.66
2023-03-20T06:01:03.522Z,98690.19
2023-03-20T06:03:54.213Z,98689.00
2023-03-20T06:06:41.935Z,98688.13
2023-03-20T06:09:09.486Z,98692.28
2023-03-20T06:11:37.786Z,98695.16
2023-03-20T06:14:07.016Z,98691.69
2023-03-20T06:16:40.199Z,98697.44
2023-03-20T06:19:07.588Z,98693.97
2023-03-20T06:21:37.231Z,98693.22
2023-03-20T06:24:06.232Z,98689.56
2023-03-20T06:26:33.628Z,98692.94
2023-03-20T06:29:05.831Z,98693.56
2023-03-20T06:31:34.304Z,98693.38
2023-03-20T06:34:04.796Z,98695.72
2023-03-20T06:36:38.077Z,98696.81
2023-03-20T06:39:11.600Z,98702.03
2023-03-20T06:41:39.435Z,98694.13
2023-03-20T06:44:09.507Z,98686.38
2023-03-20T06:47:04.947Z,98683.03
2023-03-20T06:49:32.441Z,98686.22
2023-03-20T06:51:59.869Z,98680.41
2023-03-20T06:54:28.174Z,98683.53
2023-03-20T06:56:56.017Z,98689.50
2023-03-20T06:59:23.750Z,98681.22
2023-03-20T07:01:56.571Z,98679.63
2023-03-20T07:04:24.152Z,98682.34
2023-03-20T07:06:54.724Z,98670.56
2023-03-20T07:09:23.844Z,98683.00
2023-03-20T07:11:51.305Z,98675.31
2023-03-20T07:14:18.904Z,98673.75
2023-03-20T07:16:56.299Z,98676.59
2023-03-20T07:19:23.784Z,98675.31
2023-03-20T07:22:01.877Z,98687.09
2023-03-20T07:24:33.635Z,98696.88
2023-03-20T07:27:01.058Z,98691.38
2023-03-20T07:29:28.711Z,98699.72
2023-03-20T07:31:57.155Z,98688.22
2023-03-20T07:34:29.304Z,98696.44
2023-03-20T07:36:57.373Z,98691.56
2023-03-20T07:39:24.744Z,98700.97
2023-03-20T07:42:03.587Z,98704.13
2023-03-20T07:44:53.033Z,98703.06
2023-03-20T07:47:21.141Z,98687.34
2023-03-20T07:49:48.633Z,98693.03
2023-03-20T07:52:17.159Z,98688.28
2023-03-20T07:54:44.587Z,98696.19
2023-03-20T07:57:12.079Z,98687.06
2023-03-20T07:59:39.827Z,98695.94
2023-03-20T08:02:07.450Z,98692.00
2023-03-20T08:04:34.868Z,98688.47
2023-03-20T08:07:02.369Z,98693.59
2023-03-20T08:09:29.782Z,98693.66
2023-03-20T08:11:57.141Z,98699.56
2023-03-20T08:14:24.579Z,98706.13
2023-03-20T08:17:06.210Z,98706.31
2023-03-20T08:19:38.386Z,98713.09
2023-03-20T08:22:05.883Z,98719.22
2023-03-20T08:24:33.333Z,98718.56
2023-03-20T08:27:00.955Z,98714.63
2023-03-20T08:29:28.609Z,98720.66
2023-03-20T08:31:57.787Z,98722.47
2023-03-20T08:34:26.430Z,98718.88
2023-03-20T08:36:53.908Z,98720.91
2023-03-20T08:39:21.901Z,98728.09
2023-03-20T08:41:49.308Z,98727.31
2023-03-20T08:44:17.008Z,98728.69
2023-03-20T08:46:46.457Z,98722.16
2023-03-20T08:49:14.199Z,98716.53
2023-03-20T08:51:43.096Z,98718.91
2023-03-20T08:54:10.493Z,98732.16
2023-03-20T08:56:37.939Z,98737.81
2023-03-20T08:59:05.446Z,98741.44
2023-03-20T09:01:48.337Z,98731.78
2023-03-20T09:04:17.030Z,98739.13
2023-03-20T09:06:44.444Z,98737.78
2023-03-20T09:09:15.700Z,98737.63
2023-03-20T09:11:43.209Z,98732.66
2023-03-20T09:14:10.819Z,98737.25
2023-03-20T09:16:38.287Z,98737.34
2023-03-20T09:19:06.156Z,98739.22
2023-03-20T09:21:33.499Z,98742.81
2023-03-20T09:24:01.084Z,98745.63
2023-03-20T09:26:28.546Z,98751.50
2023-03-20T09:28:55.990Z,98755.09
2023-03-20T09:31:23.528Z,98758.03
2023-03-20T09:33:51.192Z,98759.06
2023-03-20T09:36:18.711Z,98764.69
2023-03-20T09:38:46.430Z,98764.13
2023-03-20T09:41:21.571Z,98771.00
2023-03-20T09:44:06.882Z,98762.84
2023-03-20T09:46:40.076Z,98768.22
2023-03-20T09:49:45.014Z,98770.41
2023-03-20T09:52:24.812Z,98767.19
2023-03-20T09:54:55.295Z,98770.19
2023-03-20T09:57:54.532Z,98762.97
2023-03-20T10:00:26.450Z,98761.63
2023-03-20T10:03:00.973Z,98758.72
2023-03-20T10:05:32.657Z,98753.66
2023-03-20T10:08:02.392Z,98757.72
2023-03-20T10:10:57.887Z,98762.69
2023-03-20T10:13:45.032Z,98767.56
2023-03-20T10:16:34.276Z,98768.44
2023-03-20T10:19:36.872Z,98769.06
2023-03-20T10:22:11.831Z,98767.75
2023-03-20T10:25:04.484Z,98769.97
2023-03-20T10:27:36.818Z,98777.22
2023-03-20T10:30:36.235Z,98768.16
2023-03-20T10:33:13.125Z,98772.94
2023-03-20T10:35:47.491Z,98769.84
2023-03-20T10:38:25.830Z,98773.41
2023-03-20T10:40:54.099Z,98765.38
2023-03-20T10:43:33.569Z,98754.41
2023-03-20T10:46:16.769Z,98756.66
2023-03-20T10:49:08.714Z,98768.78
2023-03-20T10:51:46.092Z,98753.28
2023-03-20T10:54:34.737Z,98747.81
2023-03-20T10:57:04.466Z,98736.06
2023-03-20T10:59:37.845Z,98738.03
2023-03-20T11:02:16.225Z,98734.47
2023-03-20T11:04:44.494Z,98736.94
2023-03-20T11:07:26.922Z,98737.75
2023-03-20T11:10:06.565Z,98736.38
2023-03-20T11:12:39.771Z,98738.47
2023-03-20T11:15:34.572Z,98738.78
2023-03-20T11:18:07.812Z,98745.78
2023-03-20T11:20:45.409Z,98747.56
2023-03-20T11:23:17.750Z,98757.50
2023-03-20T11:25:57.499Z,98754.03
2023-03-20T11:28:39.544Z,98749.00
2023-03-20T11:31:41.549Z,98749.16
2023-03-20T11:34:31.138Z,98752.53
2023-03-20T11:37:12.704Z,98753.59
2023-03-20T11:39:58.450Z,98746.16
2023-03-20T11:42:29.076Z,98748.69
2023-03-20T11:45:02.786Z,98751.78
2023-03-20T11:47:34.390Z,98751.78
2023-03-20T11:50:04.719Z,98749.66
2023-03-20T11:52:34.842Z,98744.25
2023-03-20T11:55:08.322Z,98743.53
2023-03-20T11:57:40.611Z,98738.78
2023-03-20T12:00:47.304Z,98733.84
2023-03-20T12:03:34.938Z,98731.97
2023-03-20T12:06:02.467Z,98735.53
2023-03-20T12:08:31.749Z,98741.56
2023-03-20T12:11:31.955Z,98742.81
2023-03-20T12:14:01.024Z,98735.00
2023-03-20T12:16:30.541Z,98734.41
2023-03-20T12:19:01.991Z,98732.84
2023-03-20T12:21:54.189Z,98730.38
2023-03-20T12:24:30.551Z,98725.94
2023-03-20T12:27:28.032Z,98725.75
2023-03-20T12:30:13.630Z,98717.75
2023-03-20T12:32:57.074Z,98705.94
2023-03-20T12:35:32.891Z,98705.28
2023-03-20T12:38:00.869Z,98702.66
2023-03-20T12:40:43.565Z,98695.84
2023-03-20T12:43:22.126Z,98698.75
2023-03-20T12:46:09.406Z,98698.16
2023-03-20T12:48:48.791Z,98702.28
2023-03-20T12:52:11.382Z,98702.28
2023-03-20T12:55:06.633Z,98694.66
2023-03-20T12:58:00.787Z,98693.34
2023-03-20T13:00:32.173Z,98688.56
2023-03-20T13:03:41.210Z,98684.16
2023-03-20T13:06:30.378Z,98683.56
2023-03-20T13:09:13.076Z,98679.75
2023-03-20T13:11:40.514Z,98677.75
2023-03-20T13:14:24.385Z,98668.28
2023-03-20T13:17:12.955Z,98660.59
2023-03-20T13:20:16.352Z,98662.22
2023-03-20T13:23:04.353Z,98662.22
2023-03-20T13:26:22.232Z,98658.16
2023-03-20T13:29:27.839Z,98664.59
2023-03-20T13:32:19.152Z,98666.38
2023-03-20T13:35:04.678Z,98668.16
2023-03-20T13:37:39.169Z,98662.94
2023-03-20T13:40:29.999Z,98668.38
2023-03-20T13:43:35.017Z,98660.13
2023-03-20T13:46:14.660Z,98660.03
2023-03-20T13:48:44.376Z,98661.59
2023-03-20T13:51:39.818Z,98657.09
2023-03-20T13:54:27.904Z,98648.66
2023-03-20T13:57:17.906Z,98641.50
2023-03-20T13:59:59.353Z,98637.69
2023-03-20T14:03:05.876Z,98635.69
2023-03-20T14:05:40.712Z,98640.31
2023-03-20T14:08:32.610Z,98634.09
2023-03-20T14:11:20.878Z,98631.16
2023-03-20T14:14:15.613Z,98638.06
2023-03-20T14:16:43.952Z,98630.53
2023-03-20T14:19:19.336Z,98627.41
2023-03-20T14:21:53.750Z,98632.88
2023-03-20T14:24:23.013Z,98632.97
2023-03-20T14:26:56.537Z,98636.66
2023-03-20T14:29:29.456Z,98627.28
2023-03-20T14:32:14.483Z,98633.25
2023-03-20T14:35:29.050Z,98631.94
2023-03-20T14:38:26.046Z,98631.16
2023-03-20T14:41:46.790Z,98627.78
2023-03-20T14:44:36.542Z,98639.44
2023-03-20T14:47:23.864Z,98635.81
2023-03-20T14:50:12.986Z,98625.25
2023-03-20T14:52:51.957Z,98629.03
2023-03-20T14:55:22.348Z,98628.16
2023-03-20T14:57:56.633Z,98625.81
2023-03-20T15:00:29.817Z,98622.31
2023-03-20T15:03:15.677Z,98620.22
2023-03-20T15:05:43.550Z,98629.06
2023-03-20T15:08:25.849Z,98622.06
2023-03-20T15:11:00.777Z,98616.16
2023-03-20T15:13:29.094Z,98610.94
2023-03-20T15:16:08.900Z,98607.78
2023-03-20T15:18:46.264Z,98610.16
2023-03-20T15:21:21.524Z,98595.06
2023-03-20T15:23:49.118Z,98609.09
2023-03-20T15:26:19.002Z,98599.22
2023-03-20T15:28:47.067Z,98598.25
2023-03-20T15:31:36.042Z,98593.38
2023-03-20T15:34:08.821Z,98597.31
2023-03-20T15:36:39.911Z,98597.97
2023-03-20T15:39:27.163Z,98605.97
2023-03-20T15:42:05.077Z,98597.84
2023-03-20T15:44:38.438Z,98608.47
2023-03-20T15:47:11.242Z,98598.56
2023-03-20T15:49:41.405Z,98601.31
2023-03-20T15:52:28.975Z,98609.97
2023-03-20T15:54:59.273Z,98602.00
2023-03-20T15:57:40.102Z,98607.69
2023-03-20T16:00:16.745Z,98602.59
2023-03-20T16:02:48.469Z,98609.97
2023-03-20T16:05:17.145Z,98600.44
2023-03-20T16:07:44.258Z,98606.19
2023-03-20T16:10:36.552Z,98607.81
2023-03-20T16:13:06.841Z,98612.28
2023-03-20T16:15:34.685Z,98608.88
2023-03-20T16:18:04.670Z,98607.88
2023-03-20T16:20:39.102Z,98607.59
2023-03-20T16:23:08.985Z,98606.16
2023-03-20T16:25:37.438Z,98604.34
2023-03-20T16:28:08.985Z,98604.50
2023-03-20T16:30:36.717Z,98610.19
2023-03-20T16:33:15.793Z,98612.97
2023-03-20T16:35:49.394Z,98604.28
2023-03-20T16:38:27.568Z,98610.31
2023-03-20T16:41:34.425Z,98603.94
2023-03-20T16:44:12.352Z,98600.38
2023-03-20T16:46:59.925Z,98598.03
2023-03-20T16:49:32.013Z,98595.75
2023-03-20T16:52:02.172Z,98604.97
2023-03-20T16:54:35.106Z,98599.34
2023-03-20T16:57:04.062Z,98603.13
2023-03-20T16:59:31.211Z,98598.16
2023-03-20T17:02:01.704Z,98593.44
2023-03-20T17:04:35.705Z,98588.91
2023-03-20T17:07:27.919Z,98595.63
2023-03-20T17:09:59.884Z,98599.19
2023-03-20T17:12:32.442Z,98600.66
2023-03-20T17:14:59.411Z,98594.66
2023-03-20T17:17:26.751Z,98606.88
2023-03-20T17:19:53.903Z,98605.16
2023-03-20T17:22:25.258Z,98605.94
2023-03-20T17:24:53.082Z,98611.63
2023-03-20T17:27:21.418Z,98611.16
2023-03-20T17:29:49.648Z,98609.22
2023-03-20T17:32:24.061Z,98612.00
2023-03-20T17:34:51.909Z,98609.25
2023-03-20T17:37:29.709Z,98616.47
2023-03-20T17:39:57.751Z,98614.22
2023-03-20T17:42:30.983Z,98615.91
2023-03-20T17:45:05.486Z,98614.09
2023-03-20T17:47:32.478Z,98617.34
2023-03-20T17:49:59.483Z,98618.78
2023-03-20T17:52:28.885Z,98618.78
2023-03-20T17:54:56.294Z,98626.84
2023-03-20T17:57:37.419Z,98621.41
2023-03-20T18:00:10.688Z,98625.09
2023-03-20T18:02:37.620Z,98625.44
2023-03-20T18:05:07.829Z,98633.69
2023-03-20T18:07:34.968Z,98633.56
2023-03-20T18:10:02.273Z,98635.25
2023-03-20T18:12:29.259Z,98630.41
2023-03-20T18:14:56.394Z,98645.81
2023-03-20T18:17:23.404Z,98635.88
2023-03-20T18:19:50.409Z,98644.09
2023-03-20T18:22:17.343Z,98646.75
2023-03-20T18:24:45.665Z,98646.41
2023-03-20T18:27:12.749Z,98645.41
2023-03-20T18:29:39.786Z,98649.25
2023-03-20T18:32:06.836Z,98644.19
2023-03-20T18:34:33.820Z,98644.94
2023-03-20T18:37:01.278Z,98644.34
2023-03-20T18:39:28.284Z,98651.66
2023-03-20T18:41:55.474Z,98649.97
2023-03-20T18:44:22.383Z,98647.97
2023-03-20T18:46:49.467Z,98645.44
2023-03-20T18:49:17.988Z,98650.47
2023-03-20T18:51:45.656Z,98653.56
2023-03-20T18:54:12.749Z,98647.66
2023-03-20T18:56:40.728Z,98652.31
2023-03-20T18:59:12.367Z,98650.41
2023-03-20T19:01:39.725Z,98652.66
2023-03-20T19:04:06.888Z,98648.44
2023-03-20T19:06:33.992Z,98647.84
2023-03-20T19:09:05.021Z,98650.75
2023-03-20T19:11:32.029Z,98648.56
2023-03-20T19:13:59.053Z,98640.88
2023-03-20T19:16:28.984Z,98650.56
2023-03-20T19:19:01.203Z,98643.72
2023-03-20T19:21:30.341Z,98646.50
2023-03-20T19:24:00.598Z,98636.25
2023-03-20T19:26:30.661Z,98639.00
2023-03-20T19:29:00.836Z,98650.53
2023-03-20T19:31:29.363Z,98648.84
2023-03-20T19:33:56.848Z,98646.19
2023-03-20T19:36:28.392Z,98651.59
2023-03-20T19:38:57.364Z,98645.47
2023-03-20T19:41:25.419Z,98632.25
2023-03-20T19:43:54.010Z,98636.81
2023-03-20T19:46:41.403Z,98634.28
2023-03-20T19:49:20.932Z,98627.53
2023-03-20T19:51:49.475Z,98631.38
2023-03-20T19:54:17.351Z,98635.91
2023-03-20T19:56:44.349Z,98630.97
2023-03-20T19:59:12.635Z,98631.28
2023-03-20T20:01:41.284Z,98631.63
2023-03-20T20:04:08.354Z,98632.09
2023-03-20T20:06:35.636Z,98625.41
2023-03-20T20:09:03.193Z,98630.19
2023-03-20T20:11:30.318Z,98628.72
2023-03-20T20:14:06.275Z,98630.66
2023-03-20T20:16:36.090Z,98618.16
2023-03-20T20:19:03.892Z,98616.91
2023-03-20T20:24:18.117Z,98627.44
2023-03-20T20:26:56.716Z,98629.53
2023-03-20T20:29:30.836Z,98629.78
2023-03-20T20:31:59.979Z,98625.22
2023-03-20T20:38:02.837Z,98625.69
2023-03-20T20:40:01.799Z,98626.66
2023-03-20T20:42:28.811Z,98618.22
2023-03-20T20:44:55.901Z,98616.88
2023-03-20T20:47:23.294Z,98618.25
2023-03-20T20:49:50.320Z,98616.16
2023-03-20T20:52:17.923Z,98615.50
2023-03-20T20:54:45.669Z,98617.63
2023-03-20T20:57:14.177Z,98610.03
2023-03-20T20:59:41.690Z,98614.56
2023-03-20T21:02:15.788Z,98616.56
2023-03-20T21:04:43.880Z,98620.03
2023-03-20T21:07:12.844Z,98620.13
2023-03-20T21:09:41.075Z,98623.41
2023-03-20T21:12:10.564Z,98630.91
2023-03-20T21:14:38.572Z,98629.41
2023-03-20T21:17:06.967Z,98623.75
2023-03-20T21:19:42.239Z,98613.69
2023-03-20T21:22:12.188Z,98619.34
2023-03-20T21:24:39.914Z,98617.47
2023-03-20T21:27:11.063Z,98613.88
2023-03-20T21:29:39.959Z,98615.66
2023-03-20T21:32:09.423Z,98604.69
2023-03-20T21:34:38.335Z,98608.50
2023-03-20T21:38:12.779Z,98605.66
2023-03-20T21:39:54.230Z,98598.81
2023-03-20T21:42:21.776Z,98603.53
2023-03-20T21:46:02.748Z,98595.63
2023-03-20T21:50:51.228Z,98595.72
2023-03-20T21:54:04.013Z,98594.13
2023-03-20T21:56:48.549Z,98594.13
2023-03-20T21:59:34.825Z,98597.81
2023-03-20T22:02:08.290Z,98596.31
2023-03-20T22:10:45.941Z,98603.34
2023-03-20T22:13:49.642Z,98606.28
2023-03-20T22:16:12.906Z,98607.34
2023-03-20T22:38:59.010Z,98607.19
2023-03-20T22:41:37.947Z,98594.66
2023-03-20T22:46:43.977Z,98597.34
2023-03-20T22:49:05.290Z,98595.91
2023-03-20T22:51:38.590Z,98598.44
2023-03-20T22:54:12.026Z,98594.69
2023-03-20T22:56:39.476Z,98591.00
2023-03-20T22:59:06.861Z,98582.97
2023-03-20T23:01:34.275Z,98592.66
2023-03-20T23:04:01.605Z,98592.59
2023-03-20T23:06:29.272Z,98583.72
2023-03-20T23:08:59.676Z,98582.06
2023-03-20T23:11:30.664Z,98585.63
2023-03-20T23:13:58.076Z,98575.75
2023-03-20T23:16:25.590Z,98585.75
2023-03-20T23:18:53.075Z,98574.16
2023-03-20T23:21:21.098Z,98573.25
2023-03-20T23:23:48.576Z,98572.84
2023-03-20T23:26:19.829Z,98575.88
2023-03-20T23:28:48.623Z,98571.22
2023-03-20T23:31:18.152Z,98572.38
2023-03-20T23:33:49.380Z,98575.03
2023-03-20T23:36:34.517Z,98567.47
2023-03-20T23:39:02.848Z,98576.75
2023-03-20T23:41:57.286Z,98577.88
2023-03-20T23:44:18.542Z,98564.09
2023-03-20T23:46:48.156Z,98566.66
2023-03-20T23:49:16.681Z,98564.41
2023-03-20T23:51:44.154Z,98565.38
2023-03-20T23:54:12.365Z,98570.22
2023-03-20T23:56:39.860Z,98558.53
2023-03-20T23:59:18.687Z,98555.59
